Hiles, Wisconsin
Current Conditions -  °F | °C
As of 9:35 AM on Sunday 21 Dec 2014 (Local Time) from KEGV Reporting Station
Haze Haze  
Wind Chill: 23°   Ceiling: 400
Heat Index: 28°   Visibility: 2.5mi
Dew Point: 28°   Wind: 5mph
Humidity: 99%   Direction: 160°SSE
Pressure: 29.99"   Gusts: NA
Location:  45.724°N, 88.8585°W
Report Text: KEGV 211535Z AUTO 16004KT 2 1/2SM BR OVC004 M02/M02 A2999 RMK AO2 T10211023
Loading
Personal Weather Stations






























Interactive Weather Map New forecast layout! Learn more

10-Day Weather Forecast

Advertisements
Track Severe Weather on mobile